createdAt,value
2022-11-12T00:01:01.735Z,7.97
2022-11-12T00:03:28.464Z,7.77
2022-11-12T00:05:55.649Z,8.03
2022-11-12T00:08:22.863Z,7.70
2022-11-12T00:10:50.048Z,7.77
2022-11-12T00:13:16.835Z,7.67
2022-11-12T00:15:43.664Z,7.50
2022-11-12T00:18:10.480Z,7.37
2022-11-12T00:20:37.299Z,8.40
2022-11-12T00:23:04.458Z,8.00
2022-11-12T00:25:31.384Z,8.00
2022-11-12T00:28:10.528Z,7.60
2022-11-12T00:30:39.542Z,7.50
2022-11-12T00:33:06.985Z,7.30
2022-11-12T00:35:34.349Z,7.40
2022-11-12T00:38:01.366Z,7.50
2022-11-12T00:40:28.644Z,7.33
2022-11-12T00:42:55.346Z,8.27
2022-11-12T00:45:22.587Z,7.60
2022-11-12T00:47:49.750Z,7.80
2022-11-12T00:50:16.834Z,8.10
2022-11-12T00:52:43.990Z,7.53
2022-11-12T00:55:11.176Z,8.03
2022-11-12T00:57:38.079Z,7.93
2022-11-12T01:00:06.945Z,8.27
2022-11-12T01:02:40.710Z,8.93
2022-11-12T01:05:10.447Z,7.53
2022-11-12T01:07:37.184Z,8.60
2022-11-12T01:10:04.307Z,9.23
2022-11-12T01:12:32.117Z,8.97
2022-11-12T01:14:59.083Z,9.20
2022-11-12T01:17:26.041Z,8.60
2022-11-12T01:19:53.130Z,8.60
2022-11-12T01:22:19.885Z,8.77
2022-11-12T01:24:46.669Z,8.67
2022-11-12T01:27:13.803Z,9.00
2022-11-12T01:29:41.144Z,8.90
2022-11-12T01:32:08.231Z,8.13
2022-11-12T01:34:35.462Z,7.70
2022-11-12T01:37:02.572Z,9.00
2022-11-12T01:39:29.679Z,8.93
2022-11-12T01:41:56.816Z,9.10
2022-11-12T01:44:29.202Z,8.37
2022-11-12T01:47:17.042Z,9.63
2022-11-12T01:49:54.144Z,9.37
2022-11-12T01:52:24.911Z,8.53
2022-11-12T01:54:54.916Z,8.90
2022-11-12T01:57:34.583Z,9.40
2022-11-12T02:00:05.733Z,8.93
2022-11-12T02:02:34.020Z,10.63
2022-11-12T02:05:02.472Z,10.53
2022-11-12T02:07:30.986Z,10.33
2022-11-12T02:10:00.128Z,10.10
2022-11-12T02:12:45.930Z,9.20
2022-11-12T02:15:13.125Z,9.40
2022-11-12T02:17:39.928Z,9.33
2022-11-12T02:20:10.833Z,9.43
2022-11-12T02:22:37.973Z,9.70
2022-11-12T02:25:05.284Z,8.40
2022-11-12T02:27:32.260Z,8.30
2022-11-12T02:29:59.368Z,9.00
2022-11-12T02:32:26.502Z,8.53
2022-11-12T02:34:53.616Z,9.07
2022-11-12T02:37:20.689Z,8.93
2022-11-12T02:39:47.368Z,8.13
2022-11-12T02:42:14.495Z,9.23
2022-11-12T02:44:41.512Z,8.90
2022-11-12T02:47:09.133Z,8.73
2022-11-12T02:49:35.829Z,9.17
2022-11-12T02:52:02.929Z,8.63
2022-11-12T02:54:30.033Z,8.53
2022-11-12T02:56:57.148Z,8.50
2022-11-12T02:59:24.262Z,8.53
2022-11-12T03:01:51.420Z,8.63
2022-11-12T03:04:18.533Z,9.40
2022-11-12T03:06:45.721Z,7.87
2022-11-12T03:09:12.811Z,8.20
2022-11-12T03:11:39.549Z,8.87
2022-11-12T03:14:06.299Z,8.33
2022-11-12T03:16:33.008Z,7.93
2022-11-12T03:18:59.754Z,7.50
2022-11-12T03:21:26.431Z,8.23
2022-11-12T03:23:53.560Z,8.60
2022-11-12T03:26:20.632Z,7.97
2022-11-12T03:28:47.467Z,8.77
2022-11-12T03:31:14.556Z,8.00
2022-11-12T03:33:41.245Z,8.07
2022-11-12T03:36:08.166Z,8.90
2022-11-12T03:38:34.879Z,7.93
2022-11-12T03:41:01.575Z,8.40
2022-11-12T03:43:28.737Z,9.40
2022-11-12T03:45:55.533Z,8.60
2022-11-12T03:48:22.716Z,8.37
2022-11-12T03:50:50.020Z,7.87
2022-11-12T03:53:17.142Z,8.33
2022-11-12T03:55:45.177Z,15.70
2022-11-12T03:58:12.315Z,9.60
2022-11-12T04:00:39.439Z,8.33
2022-11-12T04:03:06.692Z,8.50
2022-11-12T04:05:52.361Z,8.57
2022-11-12T04:08:36.985Z,8.60
2022-11-12T04:11:15.012Z,9.27
2022-11-12T04:13:45.561Z,7.50
2022-11-12T04:16:33.374Z,8.47
2022-11-12T04:19:20.446Z,8.37
2022-11-12T04:21:56.573Z,8.23
2022-11-12T04:24:47.866Z,8.37
2022-11-12T04:27:20.541Z,9.00
2022-11-12T04:30:07.129Z,9.60
2022-11-12T04:32:36.481Z,8.97
2022-11-12T04:35:04.287Z,9.10
2022-11-12T04:37:44.440Z,9.07
2022-11-12T04:40:54.716Z,8.70
2022-11-12T04:43:40.004Z,9.50
2022-11-12T04:46:06.947Z,8.60
2022-11-12T04:48:33.820Z,9.27
2022-11-12T04:51:02.823Z,9.30
2022-11-12T04:53:30.867Z,9.27
2022-11-12T04:55:59.462Z,8.23
2022-11-12T04:58:26.913Z,8.67
2022-11-12T05:00:54.380Z,8.73
2022-11-12T05:03:21.180Z,7.60
2022-11-12T05:05:48.285Z,8.87
2022-11-12T05:08:15.367Z,9.03
2022-11-12T05:10:42.056Z,8.20
2022-11-12T05:13:08.830Z,8.17
2022-11-12T05:15:35.918Z,8.00
2022-11-12T05:18:03.043Z,8.60
2022-11-12T05:20:30.149Z,8.33
2022-11-12T05:23:06.789Z,8.20
2022-11-12T05:25:35.595Z,8.47
2022-11-12T05:28:02.702Z,8.60
2022-11-12T05:30:29.424Z,8.50
2022-11-12T05:32:58.605Z,7.77
2022-11-12T05:35:25.750Z,7.47
2022-11-12T05:37:53.057Z,7.93
2022-11-12T05:40:20.190Z,8.10
2022-11-12T05:42:47.003Z,8.40
2022-11-12T05:45:14.182Z,8.33
2022-11-12T05:47:41.340Z,8.60
2022-11-12T05:50:08.683Z,7.90
2022-11-12T05:52:39.384Z,7.30
2022-11-12T05:55:06.618Z,8.50
2022-11-12T05:57:33.417Z,8.60
2022-11-12T06:00:00.592Z,8.30
2022-11-12T06:02:27.711Z,10.00
2022-11-12T06:04:54.961Z,14.60
2022-11-12T06:07:22.137Z,8.23
2022-11-12T06:09:49.314Z,7.83
2022-11-12T06:12:16.415Z,9.27
2022-11-12T06:14:43.553Z,8.13
2022-11-12T06:17:10.655Z,8.07
2022-11-12T06:19:37.840Z,7.87
2022-11-12T06:22:04.604Z,8.07
2022-11-12T06:24:34.911Z,8.20
2022-11-12T06:27:02.292Z,7.53
2022-11-12T06:29:30.159Z,7.97
2022-11-12T06:31:57.270Z,8.40
2022-11-12T06:34:23.952Z,8.17
2022-11-12T06:36:50.699Z,7.27
2022-11-12T06:39:17.361Z,7.70
2022-11-12T06:41:44.508Z,8.83
2022-11-12T06:44:11.656Z,8.13
2022-11-12T06:46:38.739Z,8.13
2022-11-12T06:49:05.882Z,8.10
2022-11-12T06:51:33.014Z,8.37
2022-11-12T06:54:00.101Z,7.47
2022-11-12T06:56:26.801Z,8.10
2022-11-12T06:58:53.592Z,8.37
2022-11-12T07:01:20.791Z,8.17
2022-11-12T07:03:51.972Z,11.80
2022-11-12T07:06:20.431Z,8.80
2022-11-12T07:08:49.117Z,8.57
2022-11-12T07:11:19.896Z,8.13
2022-11-12T07:13:47.223Z,8.17
2022-11-12T07:16:18.443Z,8.43
2022-11-12T07:18:46.358Z,8.00
2022-11-12T07:21:15.707Z,8.70
2022-11-12T07:23:42.836Z,8.30
2022-11-12T07:26:41.914Z,7.70
2022-11-12T07:29:24.893Z,7.97
2022-11-12T07:32:00.018Z,8.40
2022-11-12T07:34:27.124Z,8.20
2022-11-12T07:36:53.859Z,7.90
2022-11-12T07:39:20.997Z,9.27
2022-11-12T07:41:48.131Z,8.83
2022-11-12T07:44:14.825Z,10.33
2022-11-12T07:46:42.021Z,10.57
2022-11-12T07:49:09.089Z,11.30
2022-11-12T07:51:36.213Z,11.10
2022-11-12T07:54:04.258Z,11.57
2022-11-12T07:56:31.037Z,11.07
2022-11-12T07:58:58.260Z,11.13
2022-11-12T08:01:40.613Z,11.27
2022-11-12T08:04:09.997Z,11.83
2022-11-12T08:06:37.301Z,11.00
2022-11-12T08:09:08.731Z,10.40
2022-11-12T08:11:35.929Z,11.30
2022-11-12T08:14:03.188Z,12.40
2022-11-12T08:16:30.235Z,13.10
2022-11-12T08:18:57.377Z,14.03
2022-11-12T08:21:24.591Z,12.20
2022-11-12T08:23:51.310Z,12.20
2022-11-12T08:26:19.858Z,10.43
2022-11-12T08:28:47.501Z,11.00
2022-11-12T08:31:16.778Z,10.87
2022-11-12T08:33:44.237Z,12.50
2022-11-12T08:36:13.804Z,10.97
2022-11-12T08:38:41.278Z,10.63
2022-11-12T08:41:10.792Z,10.50
2022-11-12T08:43:38.588Z,10.67
2022-11-12T08:46:05.717Z,9.77
2022-11-12T08:48:34.358Z,9.63
2022-11-12T08:51:02.408Z,9.73
2022-11-12T08:53:30.238Z,10.33
2022-11-12T08:55:57.526Z,10.03
2022-11-12T08:58:25.531Z,10.77
2022-11-12T09:00:52.853Z,10.00
2022-11-12T09:03:23.069Z,12.20
2022-11-12T09:05:50.580Z,10.63
2022-11-12T09:08:20.167Z,10.97
2022-11-12T09:10:47.724Z,9.70
2022-11-12T09:13:14.839Z,11.00
2022-11-12T09:15:41.939Z,10.63
2022-11-12T09:18:13.356Z,10.40
2022-11-12T09:20:40.250Z,11.10
2022-11-12T09:23:13.491Z,9.80
2022-11-12T09:25:40.805Z,10.80
2022-11-12T09:28:16.208Z,9.93
2022-11-12T09:30:46.488Z,10.60
2022-11-12T09:33:19.190Z,11.73
2022-11-12T09:35:47.006Z,11.43
2022-11-12T09:38:15.300Z,11.00
2022-11-12T09:40:50.988Z,12.33
2022-11-12T09:43:32.648Z,15.53
2022-11-12T09:49:27.494Z,13.20
2022-11-12T09:52:01.214Z,13.87
2022-11-12T09:54:35.015Z,12.20
2022-11-12T09:57:02.342Z,12.80
2022-11-12T09:59:31.904Z,12.70
2022-11-12T10:01:58.628Z,12.50
2022-11-12T10:04:37.482Z,13.23
2022-11-12T10:07:11.020Z,13.53
2022-11-12T10:10:05.287Z,12.10
2022-11-12T10:12:42.732Z,12.00
2022-11-12T10:15:43.059Z,13.20
2022-11-12T10:18:21.501Z,12.10
2022-11-12T10:21:19.181Z,11.80
2022-11-12T10:23:48.778Z,11.77
2022-11-12T10:26:18.444Z,12.40
2022-11-12T10:28:55.679Z,11.50
2022-11-12T10:31:22.424Z,11.53
2022-11-12T10:33:49.166Z,11.40
2022-11-12T10:36:36.919Z,11.53
2022-11-12T10:39:03.922Z,12.10
2022-11-12T10:41:33.236Z,11.30
2022-11-12T10:44:14.856Z,12.90
2022-11-12T10:46:41.757Z,12.67
2022-11-12T10:49:14.362Z,12.70
2022-11-12T10:51:41.287Z,12.77
2022-11-12T10:54:35.200Z,13.27
2022-11-12T10:57:25.515Z,13.33
2022-11-12T11:00:20.109Z,12.70
2022-11-12T11:02:55.063Z,13.07
2022-11-12T11:05:31.481Z,13.57
2022-11-12T11:07:58.502Z,13.10
2022-11-12T11:10:36.416Z,11.80
2022-11-12T11:13:22.604Z,12.23
2022-11-12T11:16:04.123Z,12.37
2022-11-12T11:18:34.600Z,13.33
2022-11-12T11:21:28.823Z,14.30
2022-11-12T11:24:04.792Z,16.50
2022-11-12T11:26:49.795Z,15.77
2022-11-12T11:29:34.676Z,14.37
2022-11-12T11:32:25.968Z,14.07
2022-11-12T11:35:27.228Z,14.27
2022-11-12T11:37:59.728Z,14.00
2022-11-12T11:40:36.058Z,13.93
2022-11-12T11:43:38.208Z,15.30
2022-11-12T11:46:10.739Z,14.90
2022-11-12T11:48:52.880Z,14.70
2022-11-12T11:51:41.949Z,15.23
2022-11-12T11:54:33.564Z,13.60
2022-11-12T11:57:05.067Z,15.37
2022-11-12T11:59:57.724Z,18.37
2022-11-12T12:02:58.352Z,18.60
2022-11-12T12:05:55.449Z,15.90
2022-11-12T12:08:35.001Z,15.87
2022-11-12T12:11:34.156Z,13.70
2022-11-12T12:14:06.742Z,15.03
2022-11-12T12:16:50.945Z,14.73
2022-11-12T12:19:45.996Z,13.57
2022-11-12T12:22:21.271Z,14.20
2022-11-12T12:24:54.179Z,13.93
2022-11-12T12:27:38.074Z,14.87
2022-11-12T12:30:18.462Z,13.60
2022-11-12T12:32:54.934Z,13.97
2022-11-12T12:35:35.727Z,13.60
2022-11-12T12:38:14.372Z,13.40
2022-11-12T12:40:46.880Z,16.70
2022-11-12T12:43:27.889Z,14.87
2022-11-12T12:45:57.727Z,12.60
2022-11-12T12:48:38.206Z,12.80
2022-11-12T12:51:05.080Z,14.97
2022-11-12T12:53:36.863Z,12.90
2022-11-12T12:56:47.123Z,12.20
2022-11-12T12:59:22.625Z,12.63
2022-11-12T13:02:22.680Z,11.50
2022-11-12T13:04:50.887Z,12.70
2022-11-12T13:07:18.340Z,12.00
2022-11-12T13:09:45.087Z,12.53
2022-11-12T13:12:11.805Z,12.60
2022-11-12T13:14:38.457Z,13.60
2022-11-12T13:17:12.928Z,12.50
2022-11-12T13:19:45.642Z,12.60
2022-11-12T13:22:18.429Z,12.90
2022-11-12T13:25:19.232Z,11.80
2022-11-12T13:27:47.060Z,12.13
2022-11-12T13:30:13.753Z,12.10
2022-11-12T13:32:46.428Z,12.90
2022-11-12T13:35:22.159Z,13.87
2022-11-12T13:37:56.095Z,13.50
2022-11-12T13:40:28.343Z,12.93
2022-11-12T13:43:19.614Z,13.40
2022-11-12T13:45:54.897Z,18.90
2022-11-12T13:48:33.119Z,19.57
2022-11-12T13:51:06.958Z,16.97
2022-11-12T13:53:34.061Z,15.03
2022-11-12T13:56:00.805Z,15.00
2022-11-12T13:58:35.826Z,15.90
2022-11-12T14:01:05.019Z,15.10
2022-11-12T14:03:39.969Z,15.30
2022-11-12T14:06:27.236Z,16.63
2022-11-12T14:09:12.726Z,16.07
2022-11-12T14:11:47.578Z,16.00
2022-11-12T14:14:51.748Z,15.00
2022-11-12T14:17:22.231Z,16.17
2022-11-12T14:19:55.672Z,13.67
2022-11-12T14:22:22.851Z,14.47
2022-11-12T14:25:00.970Z,14.10
2022-11-12T14:27:33.404Z,13.67
2022-11-12T14:30:20.945Z,15.00
2022-11-12T14:32:59.585Z,14.80
2022-11-12T14:35:37.918Z,16.73
2022-11-12T14:38:11.078Z,15.83
2022-11-12T14:40:54.407Z,18.50
2022-11-12T14:43:36.526Z,17.30
2022-11-12T14:46:05.908Z,18.17
2022-11-12T14:48:46.189Z,17.63
2022-11-12T14:51:14.283Z,17.60
2022-11-12T14:53:46.689Z,14.70
2022-11-12T14:56:30.009Z,15.80
2022-11-12T14:58:59.773Z,15.10
2022-11-12T15:02:20.532Z,13.63
2022-11-12T15:04:25.025Z,14.93
2022-11-12T15:06:54.057Z,17.67
2022-11-12T15:09:38.518Z,22.63
2022-11-12T15:12:19.052Z,26.10
2022-11-12T15:14:45.840Z,31.40
2022-11-12T15:17:32.765Z,30.20
2022-11-12T15:20:05.902Z,29.70
2022-11-12T15:22:32.896Z,31.43
2022-11-12T15:25:26.685Z,19.30
2022-11-12T15:27:53.643Z,17.70
2022-11-12T15:30:30.964Z,17.20
2022-11-12T15:33:13.593Z,20.23
2022-11-12T15:35:46.178Z,19.70
2022-11-12T15:38:25.632Z,17.83
2022-11-12T15:40:57.357Z,21.55
2022-11-12T15:43:30.565Z,18.03
2022-11-12T15:45:58.162Z,16.87
2022-11-12T15:48:24.865Z,18.67
2022-11-12T15:50:51.796Z,18.00
2022-11-12T15:53:18.912Z,19.60
2022-11-12T15:55:46.414Z,18.40
2022-11-12T15:58:20.099Z,17.83
2022-11-12T16:00:46.982Z,19.60
2022-11-12T16:03:21.627Z,18.27
2022-11-12T16:05:48.653Z,18.07
2022-11-12T16:08:15.559Z,18.03
2022-11-12T16:10:44.324Z,18.77
2022-11-12T16:13:31.688Z,18.90
2022-11-12T16:15:58.979Z,19.73
2022-11-12T16:18:25.701Z,18.53
2022-11-12T16:20:52.453Z,17.80
2022-11-12T16:23:19.231Z,18.70
2022-11-12T16:25:46.477Z,18.33
2022-11-12T16:28:17.978Z,18.67
2022-11-12T16:30:47.593Z,18.03
2022-11-12T16:33:17.025Z,18.47
2022-11-12T16:35:44.194Z,18.87
2022-11-12T16:38:15.037Z,18.60
2022-11-12T16:40:42.724Z,19.50
2022-11-12T16:43:09.458Z,16.53
2022-11-12T16:45:39.540Z,16.90
2022-11-12T16:48:22.755Z,15.97
2022-11-12T16:50:49.746Z,16.97
2022-11-12T16:53:16.480Z,16.33
2022-11-12T16:55:43.607Z,17.07
2022-11-12T16:58:14.500Z,17.17
2022-11-12T17:00:44.211Z,19.10
2022-11-12T17:03:13.170Z,16.63
2022-11-12T17:05:40.346Z,18.30
2022-11-12T17:08:08.393Z,19.17
2022-11-12T17:10:35.566Z,16.03
2022-11-12T17:13:02.670Z,18.13
2022-11-12T17:15:32.722Z,19.90
2022-11-12T17:17:59.905Z,18.40
2022-11-12T17:20:27.163Z,18.50
2022-11-12T17:22:53.922Z,17.77
2022-11-12T17:25:21.054Z,18.00
2022-11-12T17:27:48.178Z,19.03
2022-11-12T17:30:15.145Z,17.63
2022-11-12T17:32:42.148Z,17.27
2022-11-12T17:35:09.297Z,17.73
2022-11-12T17:37:36.127Z,16.77
2022-11-12T17:40:03.371Z,17.53
2022-11-12T17:42:30.496Z,19.40
2022-11-12T17:44:57.688Z,18.07
2022-11-12T17:47:24.424Z,17.60
2022-11-12T17:49:51.630Z,17.90
2022-11-12T17:52:18.776Z,18.70
2022-11-12T17:54:45.926Z,20.93
2022-11-12T17:57:13.066Z,18.93
2022-11-12T17:59:40.172Z,19.50
2022-11-12T18:02:07.483Z,16.83
2022-11-12T18:04:34.566Z,16.67
2022-11-12T18:07:01.680Z,20.40
2022-11-12T18:09:28.840Z,19.53
2022-11-12T18:11:56.583Z,18.70
2022-11-12T18:14:24.604Z,16.63
2022-11-12T18:16:51.499Z,18.00
2022-11-12T18:19:18.415Z,16.23
2022-11-12T18:21:45.848Z,16.60
2022-11-12T18:24:14.991Z,16.70
2022-11-12T18:26:42.090Z,18.63
2022-11-12T18:29:09.240Z,16.73
2022-11-12T18:31:36.403Z,17.40
2022-11-12T18:34:03.545Z,16.77
2022-11-12T18:36:30.899Z,18.23
2022-11-12T18:38:58.028Z,17.67
2022-11-12T18:41:26.853Z,15.50
2022-11-12T18:43:54.525Z,16.53
2022-11-12T18:46:21.580Z,18.47
2022-11-12T18:48:48.912Z,18.07
2022-11-12T18:51:17.933Z,17.40
2022-11-12T18:53:46.113Z,19.00
2022-11-12T18:56:15.620Z,20.00
2022-11-12T18:58:42.622Z,18.63
2022-11-12T19:01:13.263Z,18.97
2022-11-12T19:03:40.135Z,19.50
2022-11-12T19:06:07.776Z,20.13
2022-11-12T19:08:35.201Z,22.03
2022-11-12T19:11:04.994Z,23.17
2022-11-12T19:13:32.553Z,23.73
2022-11-12T19:16:11.880Z,23.90
2022-11-12T19:18:40.434Z,23.73
2022-11-12T19:21:09.896Z,24.23
2022-11-12T19:23:37.042Z,22.30
2022-11-12T19:26:05.142Z,21.60
2022-11-12T19:28:32.543Z,21.30
2022-11-12T19:31:03.957Z,21.07
2022-11-12T19:33:31.143Z,21.77
2022-11-12T19:36:00.995Z,22.27
2022-11-12T19:38:32.728Z,23.50
2022-11-12T19:41:05.650Z,21.87
2022-11-12T19:43:32.679Z,26.07
2022-11-12T19:45:59.833Z,23.10
2022-11-12T19:48:27.389Z,23.17
2022-11-12T19:50:55.077Z,24.70
2022-11-12T19:53:21.788Z,25.03
2022-11-12T19:55:48.989Z,25.37
2022-11-12T19:58:16.143Z,26.40
2022-11-12T20:00:43.390Z,25.87
2022-11-12T20:03:10.684Z,22.77
2022-11-12T20:05:37.828Z,23.30
2022-11-12T20:08:05.049Z,23.47
2022-11-12T20:10:32.208Z,22.87
2022-11-12T20:12:58.985Z,23.50
2022-11-12T20:15:26.172Z,24.90
2022-11-12T20:17:53.421Z,23.00
2022-11-12T20:20:20.616Z,24.93
2022-11-12T20:22:47.787Z,23.67
2022-11-12T20:25:15.357Z,23.10
2022-11-12T20:27:42.073Z,24.50
2022-11-12T20:30:09.465Z,23.83
2022-11-12T20:32:36.193Z,26.57
2022-11-12T20:35:06.981Z,29.10
2022-11-12T20:37:37.601Z,28.20
2022-11-12T20:40:04.759Z,29.80
2022-11-12T20:42:31.941Z,28.90
2022-11-12T20:44:59.083Z,30.70
2022-11-12T20:47:25.833Z,26.33
2022-11-12T20:49:52.928Z,27.23
2022-11-12T20:52:20.080Z,30.47
2022-11-12T20:54:46.794Z,31.23
2022-11-12T20:57:13.516Z,31.53
2022-11-12T20:59:41.314Z,32.43
2022-11-12T21:02:10.357Z,31.70
2022-11-12T21:04:37.981Z,33.80
2022-11-12T21:07:05.717Z,34.07
2022-11-12T21:09:33.041Z,32.67
2022-11-12T21:12:00.160Z,32.70
2022-11-12T21:14:27.304Z,33.40
2022-11-12T21:16:54.452Z,32.90
2022-11-12T21:19:21.604Z,35.60
2022-11-12T21:21:48.832Z,37.03
2022-11-12T21:24:15.618Z,37.00
2022-11-12T21:26:42.762Z,34.80
2022-11-12T21:29:09.895Z,35.40
2022-11-12T21:31:38.966Z,36.90
2022-11-12T21:34:07.036Z,35.67
2022-11-12T21:36:35.560Z,37.97
2022-11-12T21:39:03.598Z,35.90
2022-11-12T21:41:33.804Z,43.03
2022-11-12T21:44:00.555Z,36.57
2022-11-12T21:46:29.634Z,32.00
2022-11-12T21:48:57.274Z,32.70
2022-11-12T21:51:26.605Z,32.27
2022-11-12T21:53:58.792Z,34.70
2022-11-12T21:56:26.465Z,32.87
2022-11-12T21:58:59.294Z,32.43
2022-11-12T22:01:28.138Z,34.17
2022-11-12T22:03:55.932Z,34.47
2022-11-12T22:06:25.099Z,34.50
2022-11-12T22:08:53.838Z,32.73
2022-11-12T22:11:22.535Z,34.10
2022-11-12T22:13:49.629Z,33.37
2022-11-12T22:16:21.743Z,32.60
2022-11-12T22:18:50.248Z,32.13
2022-11-12T22:21:19.509Z,35.60
2022-11-12T22:23:46.438Z,35.37
2022-11-12T22:26:16.304Z,34.20
2022-11-12T22:28:43.503Z,32.07
2022-11-12T22:31:12.782Z,32.17
2022-11-12T22:33:39.901Z,33.10
2022-11-12T22:36:12.574Z,33.13
2022-11-12T22:38:41.328Z,32.60
2022-11-12T22:41:13.618Z,33.50
2022-11-12T22:43:40.937Z,32.80
2022-11-12T22:46:13.075Z,31.60
2022-11-12T22:48:40.776Z,31.80
2022-11-12T22:51:09.412Z,32.20
2022-11-12T22:53:36.488Z,31.87
2022-11-12T22:56:04.286Z,33.17
2022-11-12T22:58:34.426Z,34.17
2022-11-12T23:01:01.633Z,32.47
2022-11-12T23:03:31.545Z,33.30
2022-11-12T23:05:59.776Z,31.37
2022-11-12T23:08:27.366Z,31.40
2022-11-12T23:10:54.699Z,32.63
2022-11-12T23:13:21.966Z,30.13
2022-11-12T23:15:48.736Z,32.00
2022-11-12T23:18:15.884Z,30.97
2022-11-12T23:20:42.992Z,31.63
2022-11-12T23:23:10.123Z,31.40
2022-11-12T23:25:37.347Z,31.00
2022-11-12T23:28:07.635Z,29.10
2022-11-12T23:30:35.798Z,30.50
2022-11-12T23:33:03.159Z,29.87
2022-11-12T23:35:30.311Z,29.43
2022-11-12T23:37:57.471Z,29.87
2022-11-12T23:40:29.784Z,28.67
2022-11-12T23:42:58.128Z,29.00
2022-11-12T23:45:25.300Z,31.70
2022-11-12T23:47:52.550Z,31.23
2022-11-12T23:50:19.720Z,28.60
2022-11-12T23:52:46.891Z,27.23
2022-11-12T23:55:14.002Z,29.13
2022-11-12T23:57:41.155Z,27.57
